createdAt,value
2018-02-06T00:00:36.402Z,-0.30
2018-02-06T00:03:07.113Z,-0.20
2018-02-06T00:05:37.108Z,-0.20
2018-02-06T00:08:07.201Z,-0.20
2018-02-06T00:10:37.244Z,-0.10
2018-02-06T00:13:07.519Z,-0.10
2018-02-06T00:15:38.287Z,-0.10
2018-02-06T00:18:08.380Z,-0.20
2018-02-06T00:20:38.353Z,0.00
2018-02-06T00:23:10.981Z,0.00
2018-02-06T00:25:41.176Z,-0.10
2018-02-06T00:28:12.657Z,-0.10
2018-02-06T00:30:42.836Z,-0.10
2018-02-06T00:33:13.132Z,-0.10
2018-02-06T00:35:43.208Z,-0.20
2018-02-06T00:38:13.222Z,-0.30
2018-02-06T00:40:44.344Z,-0.60
2018-02-06T00:43:15.948Z,-0.40
2018-02-06T00:45:46.095Z,-0.40
2018-02-06T00:48:16.311Z,-0.30
2018-02-06T00:50:46.722Z,-0.20
2018-02-06T00:53:16.705Z,-0.10
2018-02-06T00:55:47.653Z,-0.30
2018-02-06T00:58:17.912Z,-0.30
2018-02-06T01:00:48.053Z,-0.20
2018-02-06T01:03:18.202Z,-0.20
2018-02-06T01:05:49.803Z,-0.20
2018-02-06T01:08:20.405Z,-0.20
2018-02-06T01:10:52.704Z,-0.30
2018-02-06T01:13:23.109Z,-0.50
2018-02-06T01:15:53.096Z,-0.60
2018-02-06T01:18:25.035Z,-0.70
2018-02-06T01:20:55.131Z,-0.70
2018-02-06T01:23:25.034Z,-1.60
2018-02-06T01:25:55.036Z,-0.70
2018-02-06T01:28:30.512Z,-0.80
2018-02-06T01:31:01.337Z,-0.80
2018-02-06T01:33:31.367Z,-0.80
2018-02-06T01:36:02.277Z,-0.80
2018-02-06T01:38:33.182Z,-0.90
2018-02-06T01:41:04.091Z,-0.80
2018-02-06T01:43:34.523Z,-0.80
2018-02-06T01:46:04.597Z,-0.80
2018-02-06T06:55:28.970Z,0.60
2018-02-06T06:58:01.153Z,0.60
2018-02-06T07:00:34.941Z,0.60
2018-02-06T07:03:07.313Z,0.60
2018-02-06T07:05:42.577Z,-0.20
2018-02-06T07:08:12.835Z,0.50
2018-02-06T07:10:43.548Z,0.60
2018-02-06T07:13:13.929Z,0.60
2018-02-06T07:15:45.178Z,0.60
2018-02-06T07:18:15.432Z,0.60
2018-02-06T07:20:53.340Z,0.60
2018-02-06T07:23:26.690Z,0.80
2018-02-06T07:25:57.767Z,0.80
2018-02-06T07:28:28.067Z,0.80
2018-02-06T07:30:58.781Z,0.80
2018-02-06T07:33:29.632Z,0.90
2018-02-06T07:36:02.898Z,1.00
2018-02-06T07:38:35.857Z,1.10
2018-02-06T07:41:07.962Z,0.90
2018-02-06T07:43:38.275Z,0.90
2018-02-06T07:46:09.033Z,1.00
2018-02-06T07:48:39.346Z,1.10
2018-02-06T07:51:09.476Z,1.20
2018-02-06T07:53:39.591Z,1.20
2018-02-06T07:56:10.946Z,1.20
2018-02-06T07:58:41.522Z,1.10
2018-02-06T08:01:13.972Z,1.10
2018-02-06T08:03:45.659Z,1.10
2018-02-06T08:06:17.087Z,0.90
2018-02-06T08:08:47.566Z,0.90
2018-02-06T08:11:18.078Z,0.90
2018-02-06T08:13:49.562Z,0.80
2018-02-06T08:16:23.241Z,1.10
2018-02-06T08:18:56.306Z,1.10
2018-02-06T08:21:39.025Z,1.40
2018-02-06T08:24:13.668Z,1.40
2018-02-06T08:26:45.362Z,1.30
2018-02-06T08:29:21.131Z,1.30
2018-02-06T08:31:52.761Z,1.30
2018-02-06T08:34:23.217Z,1.40
2018-02-06T08:36:54.470Z,1.40
2018-02-06T08:39:27.403Z,1.10
2018-02-06T08:41:58.443Z,1.10
2018-02-06T08:44:43.259Z,1.00
2018-02-06T08:47:13.367Z,1.00
2018-02-06T08:49:47.397Z,0.90
2018-02-06T08:52:19.596Z,1.00
2018-02-06T08:54:57.508Z,1.00
2018-02-06T08:57:29.129Z,1.10
2018-02-06T09:00:04.668Z,1.20
2018-02-06T09:02:39.413Z,1.30
2018-02-06T09:05:12.968Z,1.40
2018-02-06T09:07:43.628Z,1.40
2018-02-06T09:10:30.291Z,1.60
2018-02-06T09:13:03.436Z,1.50
2018-02-06T09:15:35.297Z,1.70
2018-02-06T09:18:13.500Z,1.80
2018-02-06T09:20:45.236Z,1.80
2018-02-06T09:23:31.529Z,1.80
2018-02-06T09:26:04.304Z,1.80
2018-02-06T09:28:37.006Z,1.90
2018-02-06T09:31:08.823Z,1.60
2018-02-06T09:34:07.022Z,1.90
2018-02-06T09:36:42.897Z,1.80
2018-02-06T09:48:15.078Z,1.70
2018-02-06T09:50:47.311Z,1.80
2018-02-06T09:53:35.220Z,1.80
2018-02-06T09:56:10.093Z,1.80
2018-02-06T09:58:41.112Z,1.90
2018-02-06T10:01:14.005Z,1.70
2018-02-06T10:07:07.544Z,1.60
2018-02-06T10:09:54.012Z,1.70
2018-02-06T10:12:26.492Z,1.80
2018-02-06T10:15:03.166Z,1.80
2018-02-06T10:17:35.304Z,1.90
2018-02-06T10:20:25.597Z,2.00
2018-02-06T10:23:01.363Z,2.20
2018-02-06T10:25:32.751Z,2.20
2018-02-06T10:28:06.495Z,1.80
2018-02-06T10:30:39.553Z,2.30
2018-02-06T10:33:10.523Z,2.40
2018-02-06T10:35:43.559Z,2.40
2018-02-06T10:38:18.360Z,2.50
2018-02-06T10:41:06.986Z,1.00
2018-02-06T10:43:45.504Z,2.10
2018-02-06T10:46:21.015Z,2.30
2018-02-06T10:48:55.183Z,2.20
2018-02-06T10:51:29.716Z,2.30
2018-02-06T10:54:06.282Z,2.30
2018-02-06T10:56:43.088Z,2.20
2018-02-06T11:02:12.818Z,2.10
2018-02-06T11:04:58.570Z,2.20
2018-02-06T11:10:32.872Z,2.30
2018-02-06T11:13:04.203Z,2.30
2018-02-06T11:15:38.885Z,2.10
2018-02-06T11:18:10.607Z,2.20
2018-02-06T11:20:42.292Z,2.20
2018-02-06T11:23:14.567Z,1.90
2018-02-06T11:26:02.193Z,1.90
2018-02-06T11:28:51.681Z,1.90
2018-02-06T11:31:26.011Z,2.00
2018-02-06T11:34:13.508Z,2.00
2018-02-06T11:43:12.840Z,2.30
2018-02-06T11:48:52.437Z,2.30
2018-02-06T11:57:21.594Z,2.40
2018-02-06T12:03:04.833Z,2.60
2018-02-06T12:09:08.299Z,2.60
2018-02-06T12:14:26.100Z,2.20
2018-02-06T12:17:14.512Z,2.10
2018-02-06T12:19:45.267Z,1.90
2018-02-06T12:22:16.854Z,1.50
2018-02-06T12:24:47.647Z,1.50
2018-02-06T12:27:23.542Z,1.70
2018-02-06T12:30:00.727Z,1.70
2018-02-06T12:33:55.841Z,2.00
2018-02-06T12:39:40.394Z,2.20
2018-02-06T12:42:22.495Z,2.20
2018-02-06T12:44:53.749Z,2.30
2018-02-06T12:47:39.084Z,2.30
2018-02-06T12:50:18.537Z,2.30
2018-02-06T12:55:50.934Z,2.50
2018-02-06T13:04:18.581Z,2.90
2018-02-06T13:09:49.929Z,3.10
2018-02-06T13:12:21.113Z,3.20
2018-02-06T13:14:51.672Z,3.20
2018-02-06T13:17:25.211Z,3.30
2018-02-06T13:19:56.415Z,3.30
2018-02-06T13:22:26.604Z,3.40
2018-02-06T13:24:59.436Z,3.40
2018-02-06T13:27:38.650Z,3.50
2018-02-06T13:30:23.473Z,3.50
2018-02-06T13:32:54.959Z,3.60
2018-02-06T13:35:25.803Z,3.70
2018-02-06T13:38:10.697Z,3.70
2018-02-06T13:40:44.632Z,3.70
2018-02-06T13:43:19.315Z,3.80
2018-02-06T13:46:03.901Z,3.70
2018-02-06T13:48:35.569Z,3.70
2018-02-06T13:51:06.083Z,3.80
2018-02-06T13:53:36.506Z,3.70
2018-02-06T13:56:07.877Z,3.60
2018-02-06T13:58:40.792Z,3.60
2018-02-06T14:01:28.760Z,3.50
2018-02-06T14:04:26.499Z,3.20
2018-02-06T14:07:10.939Z,3.30
2018-02-06T14:09:56.072Z,3.00
2018-02-06T14:12:28.405Z,2.90
2018-02-06T14:14:59.923Z,2.80
2018-02-06T14:17:59.363Z,2.80
2018-02-06T14:21:08.924Z,2.90
2018-02-06T14:32:22.421Z,2.50
2018-02-06T14:34:55.339Z,2.40
2018-02-06T14:37:28.208Z,2.40
2018-02-06T14:40:13.992Z,2.40
2018-02-06T14:42:58.984Z,2.50
2018-02-06T14:45:31.803Z,2.50
2018-02-06T14:48:21.239Z,2.40
2018-02-06T15:03:11.253Z,1.70
2018-02-06T15:05:57.404Z,1.70
2018-02-06T15:08:29.040Z,1.60
2018-02-06T15:11:02.702Z,1.60
2018-02-06T15:13:38.180Z,1.60
2018-02-06T15:16:09.207Z,1.60
2018-02-06T15:21:39.065Z,1.60
2018-02-06T15:24:20.200Z,1.70
2018-02-06T15:26:55.920Z,1.70
2018-02-06T15:29:30.257Z,1.70
2018-02-06T15:32:06.481Z,1.80
2018-02-06T15:34:50.721Z,1.70
2018-02-06T15:37:26.500Z,1.60
2018-02-06T15:39:59.110Z,1.70
2018-02-06T15:42:30.848Z,1.70
2018-02-06T15:45:01.852Z,1.70
2018-02-06T15:47:36.492Z,1.70
2018-02-06T15:50:07.305Z,1.70
2018-02-06T15:52:40.574Z,1.70
2018-02-06T15:55:26.386Z,1.50
2018-02-06T15:57:57.153Z,1.50
2018-02-06T16:00:28.805Z,1.50
2018-02-06T16:02:59.101Z,1.70
2018-02-06T16:05:31.777Z,1.70
2018-02-06T16:08:20.266Z,1.60
2018-02-06T16:14:14.790Z,1.60
2018-02-06T16:22:57.909Z,0.70
2018-02-06T16:28:28.140Z,1.30
2018-02-06T16:30:59.132Z,1.30
2018-02-06T16:33:31.032Z,1.20
2018-02-06T16:36:07.545Z,1.20
2018-02-06T16:38:38.321Z,1.30
2018-02-06T16:41:09.213Z,1.20
2018-02-06T16:43:41.193Z,1.20
2018-02-06T16:46:11.288Z,1.30
2018-02-06T16:48:41.811Z,1.30
2018-02-06T16:51:11.885Z,1.40
2018-02-06T16:53:45.012Z,1.40
2018-02-06T16:56:19.601Z,0.10
2018-02-06T17:01:33.277Z,1.40
2018-02-06T17:04:04.432Z,1.40
2018-02-06T17:06:37.161Z,1.40
2018-02-06T17:09:07.319Z,1.90
2018-02-06T17:11:38.770Z,1.30
2018-02-06T17:14:08.954Z,1.30
2018-02-06T17:16:43.668Z,1.30
2018-02-06T17:19:14.162Z,1.30
2018-02-06T17:21:44.047Z,1.20
2018-02-06T17:24:14.148Z,1.20
2018-02-06T17:26:49.288Z,1.20
2018-02-06T17:32:17.933Z,1.20
2018-02-06T17:34:48.344Z,1.20
2018-02-06T17:37:19.068Z,1.20
2018-02-06T17:39:53.124Z,1.20
2018-02-06T17:42:38.211Z,1.10
2018-02-06T17:45:08.596Z,1.20
2018-02-06T17:47:42.302Z,1.10
2018-02-06T17:50:16.468Z,1.10
2018-02-06T17:53:00.098Z,1.10
2018-02-06T17:55:29.848Z,1.10
2018-02-06T17:58:34.642Z,1.10
2018-02-06T18:01:17.621Z,1.10
2018-02-06T18:03:49.188Z,1.10
2018-02-06T18:06:23.917Z,1.10
2018-02-06T18:11:40.415Z,1.10
2018-02-06T18:14:16.250Z,1.20
2018-02-06T18:17:27.043Z,1.10
2018-02-06T18:26:30.992Z,1.20
2018-02-06T18:29:15.786Z,1.20
2018-02-06T18:38:41.503Z,1.40
2018-02-06T18:41:13.318Z,1.20
2018-02-06T18:46:51.832Z,1.40
2018-02-06T18:49:23.965Z,1.30
2018-02-06T18:52:25.276Z,1.30
2018-02-06T18:54:56.424Z,1.20
2018-02-06T19:00:37.369Z,1.10
2018-02-06T19:03:13.139Z,1.10
2018-02-06T19:06:10.245Z,1.10
2018-02-06T19:12:05.313Z,1.00
2018-02-06T19:23:34.213Z,0.90
2018-02-06T19:26:04.416Z,0.90
2018-02-06T19:32:08.703Z,0.80
2018-02-06T19:34:39.212Z,0.90
2018-02-06T19:37:10.341Z,0.90
2018-02-06T19:39:45.062Z,1.00
2018-02-06T19:42:19.828Z,1.00
2018-02-06T19:44:55.416Z,1.00
2018-02-06T19:50:40.741Z,0.90
2018-02-06T19:53:24.764Z,0.90
2018-02-06T19:55:55.445Z,0.90
2018-02-06T19:58:29.273Z,0.80
2018-02-06T20:00:59.949Z,0.80
2018-02-06T20:06:12.662Z,0.80
2018-02-06T20:08:42.926Z,0.80
2018-02-06T20:11:13.654Z,0.90
2018-02-06T20:13:45.483Z,0.90
2018-02-06T20:16:16.228Z,0.90
2018-02-06T20:18:48.064Z,0.90
2018-02-06T20:21:19.928Z,0.90
2018-02-06T20:23:50.845Z,2.10
2018-02-06T20:26:21.563Z,0.90
2018-02-06T20:28:51.918Z,2.20
2018-02-06T20:31:36.463Z,0.90
2018-02-06T20:36:53.618Z,0.90
2018-02-06T20:39:25.869Z,0.90
2018-02-06T20:41:56.858Z,0.90
2018-02-06T20:44:27.163Z,0.90
2018-02-06T20:49:44.372Z,0.80
2018-02-06T20:52:15.199Z,0.70
2018-02-06T20:54:47.879Z,0.70
2018-02-06T20:57:20.005Z,0.70
2018-02-06T20:59:53.007Z,0.70
2018-02-06T21:02:26.644Z,0.70
2018-02-06T21:04:56.957Z,0.70
2018-02-06T21:07:28.488Z,0.80
2018-02-06T21:09:59.771Z,0.80
2018-02-06T21:12:36.168Z,1.00
2018-02-06T21:15:10.421Z,1.00
2018-02-06T21:17:42.826Z,1.10
2018-02-06T21:20:17.249Z,1.10
2018-02-06T21:22:48.660Z,1.00
2018-02-06T21:25:18.548Z,1.00
2018-02-06T21:27:48.424Z,0.90
2018-02-06T21:35:46.529Z,0.90
2018-02-06T21:38:21.099Z,0.90
2018-02-06T21:41:03.224Z,0.90
2018-02-06T21:43:36.063Z,1.00
2018-02-06T21:46:10.936Z,0.50
2018-02-06T21:48:40.975Z,0.90
2018-02-06T21:51:11.904Z,0.90
2018-02-06T21:53:46.290Z,0.90
2018-02-06T21:56:31.187Z,0.90
2018-02-06T21:59:06.264Z,0.90
2018-02-06T22:01:37.150Z,0.90
2018-02-06T22:04:07.134Z,0.80
2018-02-06T22:06:37.097Z,0.90
2018-02-06T22:09:08.175Z,0.90
2018-02-06T22:11:42.679Z,0.90
2018-02-06T22:14:26.600Z,0.90
2018-02-06T22:16:56.936Z,0.90
2018-02-06T22:19:30.608Z,0.90
2018-02-06T22:22:02.828Z,0.90
2018-02-06T22:24:37.012Z,0.90
2018-02-06T22:27:10.314Z,0.80
2018-02-06T22:29:41.837Z,0.80
2018-02-06T22:32:12.046Z,0.70
2018-02-06T22:34:42.791Z,0.80
2018-02-06T22:37:15.816Z,0.80
2018-02-06T22:39:45.915Z,0.80
2018-02-06T22:42:15.776Z,0.70
2018-02-06T22:44:47.894Z,0.70
2018-02-06T22:47:18.723Z,0.70
2018-02-06T22:59:03.802Z,0.70
2018-02-06T23:01:34.436Z,0.70
2018-02-06T23:04:04.415Z,0.70
2018-02-06T23:06:34.501Z,0.60
2018-02-06T23:09:04.532Z,0.70
2018-02-06T23:11:34.469Z,0.60
2018-02-06T23:14:16.061Z,0.60
2018-02-06T23:16:45.964Z,0.70
2018-02-06T23:19:27.857Z,0.80
2018-02-06T23:21:57.714Z,0.80
2018-02-06T23:24:37.913Z,0.90
2018-02-06T23:27:08.097Z,0.90
2018-02-06T23:29:38.906Z,0.90
2018-02-06T23:32:08.876Z,0.80
2018-02-06T23:34:39.354Z,0.80
2018-02-06T23:37:09.948Z,0.80
2018-02-06T23:39:41.559Z,0.80
2018-02-06T23:42:15.517Z,0.70
2018-02-06T23:44:46.426Z,0.80
2018-02-06T23:47:16.908Z,0.80
2018-02-06T23:54:20.945Z,0.80
